createdAt,value
2023-02-06T00:01:40.777Z,-3.16
2023-02-06T00:04:55.843Z,-3.11
2023-02-06T00:07:57.817Z,-3.02
2023-02-06T00:11:15.757Z,-3.18
2023-02-06T00:14:17.961Z,-2.81
2023-02-06T00:17:32.758Z,-2.81
2023-02-06T00:20:41.803Z,-2.70
2023-02-06T00:23:52.709Z,-2.67
2023-02-06T00:27:00.784Z,-2.72
2023-02-06T00:30:09.772Z,-2.76
2023-02-06T00:33:20.986Z,-2.74
2023-02-06T00:36:35.775Z,-2.82
2023-02-06T00:39:50.787Z,-2.84
2023-02-06T00:43:05.781Z,-2.84
2023-02-06T00:46:14.483Z,-2.90
2023-02-06T00:49:22.786Z,-2.89
2023-02-06T00:52:37.794Z,-2.95
2023-02-06T00:55:46.820Z,-3.00
2023-02-06T00:58:55.420Z,-2.94
2023-02-06T01:02:09.807Z,-2.92
2023-02-06T01:05:24.794Z,-2.96
2023-02-06T01:08:39.780Z,-2.98
2023-02-06T01:11:48.499Z,-3.02
2023-02-06T01:14:56.783Z,-3.00
2023-02-06T01:18:05.561Z,-3.04
2023-02-06T01:21:17.768Z,-3.00
2023-02-06T01:36:05.806Z,-3.17
2023-02-06T01:43:24.750Z,-3.24
2023-02-06T01:46:40.825Z,-3.23
2023-02-06T01:49:57.776Z,-3.30
2023-02-06T01:57:07.759Z,-3.38
2023-02-06T02:00:23.752Z,-3.51
2023-02-06T02:03:41.758Z,-3.42
2023-02-06T02:07:09.284Z,-3.42
2023-02-06T02:10:17.767Z,-3.42
2023-02-06T02:13:26.445Z,-3.37
2023-02-06T02:17:11.798Z,-3.48
2023-02-06T02:20:42.313Z,-3.55
2023-02-06T02:24:11.783Z,-3.55
2023-02-06T02:27:55.779Z,-3.61
2023-02-06T02:31:36.678Z,-3.58
2023-02-06T02:34:54.784Z,-3.55
2023-02-06T02:38:26.760Z,-3.58
2023-02-06T02:41:39.864Z,-3.56
2023-02-06T02:45:12.762Z,-3.58
2023-02-06T02:48:36.757Z,-3.64
2023-02-06T02:51:40.665Z,-3.64
2023-02-06T02:54:55.759Z,-3.62
2023-02-06T02:58:14.764Z,-3.62
2023-02-06T03:01:45.725Z,-3.58
2023-02-06T03:05:09.745Z,-3.52
2023-02-06T03:08:40.752Z,-3.66
2023-02-06T03:11:53.693Z,-3.70
2023-02-06T03:15:27.735Z,-3.71
2023-02-06T03:19:11.740Z,-3.70
2023-02-06T03:22:21.778Z,-3.75
2023-02-06T03:25:45.736Z,-3.63
2023-02-06T03:29:01.238Z,-3.69
2023-02-06T03:32:21.761Z,-3.66
2023-02-06T03:35:41.741Z,-3.61
2023-02-06T03:38:49.417Z,-3.62
2023-02-06T03:42:05.750Z,-3.60
2023-02-06T03:45:47.773Z,-3.63
2023-02-06T03:49:06.755Z,-3.65
2023-02-06T03:52:20.890Z,-3.61
2023-02-06T03:59:27.761Z,-3.77
2023-02-06T04:02:43.772Z,-3.80
2023-02-06T04:06:05.754Z,-3.77
2023-02-06T04:09:13.738Z,-3.76
2023-02-06T04:12:29.725Z,-3.71
2023-02-06T04:15:38.555Z,-3.66
2023-02-06T04:18:53.750Z,-3.67
2023-02-06T04:22:02.720Z,-3.58
2023-02-06T04:25:18.713Z,-3.60
2023-02-06T04:28:34.769Z,-3.70
2023-02-06T04:31:49.737Z,-3.65
2023-02-06T04:34:58.430Z,-3.62
2023-02-06T04:38:06.703Z,-3.46
2023-02-06T04:41:15.360Z,-3.49
2023-02-06T04:44:23.734Z,-3.45
2023-02-06T04:47:32.322Z,-3.42
2023-02-06T04:50:40.706Z,-3.50
2023-02-06T04:53:55.714Z,-3.45
2023-02-06T04:57:10.713Z,-3.42
2023-02-06T05:00:19.721Z,-3.38
2023-02-06T05:03:35.056Z,-3.36
2023-02-06T05:06:43.697Z,-3.36
2023-02-06T05:09:52.317Z,-3.39
2023-02-06T05:13:06.737Z,-3.43
2023-02-06T05:16:20.803Z,-3.51
2023-02-06T05:19:37.722Z,-3.42
2023-02-06T05:22:46.474Z,-3.39
2023-02-06T05:25:54.702Z,-3.36
2023-02-06T05:29:09.700Z,-3.56
2023-02-06T05:32:18.577Z,-3.56
2023-02-06T05:39:18.726Z,-3.53
2023-02-06T05:42:33.692Z,-3.58
2023-02-06T05:46:35.367Z,-3.69
2023-02-06T05:49:50.686Z,-3.58
2023-02-06T05:52:52.628Z,-3.63
2023-02-06T05:56:07.720Z,-3.73
2023-02-06T05:59:09.619Z,-3.74
2023-02-06T06:02:24.705Z,-3.73
2023-02-06T06:05:46.711Z,-3.76
2023-02-06T06:09:01.701Z,-3.72
2023-02-06T06:12:10.431Z,-3.68
2023-02-06T06:15:25.690Z,-3.77
2023-02-06T06:18:34.423Z,-3.69
2023-02-06T06:21:49.914Z,-3.66
2023-02-06T06:29:02.709Z,-3.66
2023-02-06T06:32:11.504Z,-3.80
2023-02-06T06:35:20.732Z,-3.62
2023-02-06T06:38:29.373Z,-3.56
2023-02-06T06:41:43.743Z,-3.60
2023-02-06T06:44:45.668Z,-3.56
2023-02-06T06:48:00.681Z,-3.51
2023-02-06T06:51:09.733Z,-3.52
2023-02-06T06:54:18.491Z,-3.51
2023-02-06T06:57:37.666Z,-3.55
2023-02-06T07:00:49.774Z,-3.32
2023-02-06T07:04:05.189Z,-3.31
2023-02-06T07:07:19.844Z,-3.42
2023-02-06T07:10:37.693Z,-3.25
2023-02-06T07:13:39.593Z,-3.17
2023-02-06T07:16:55.698Z,-3.18
2023-02-06T07:20:04.659Z,-3.17
2023-02-06T07:23:13.330Z,-3.14
2023-02-06T07:26:21.665Z,-3.07
2023-02-06T07:29:36.657Z,-3.03
2023-02-06T07:32:51.717Z,-3.06
2023-02-06T07:35:53.657Z,-2.93
2023-02-06T07:39:10.688Z,-2.91
2023-02-06T07:42:19.704Z,-2.84
2023-02-06T07:45:28.686Z,-2.82
2023-02-06T07:48:43.674Z,-2.72
2023-02-06T07:51:46.204Z,-2.64
2023-02-06T07:55:00.661Z,-2.77
2023-02-06T07:58:09.457Z,-2.45
2023-02-06T08:01:17.709Z,-2.23
2023-02-06T08:04:32.707Z,-1.94
2023-02-06T08:07:47.692Z,-1.66
2023-02-06T08:11:02.660Z,-1.51
2023-02-06T08:14:17.684Z,-1.21
2023-02-06T08:17:19.824Z,-1.15
2023-02-06T08:20:34.690Z,-1.02
2023-02-06T08:24:39.854Z,-0.55
2023-02-06T08:27:48.985Z,-0.27
2023-02-06T08:30:57.919Z,0.01
2023-02-06T08:34:14.805Z,0.22
2023-02-06T08:37:23.956Z,0.13
2023-02-06T08:40:35.011Z,0.21
2023-02-06T08:47:34.688Z,0.05
2023-02-06T08:50:44.161Z,0.22
2023-02-06T08:54:09.672Z,0.14
2023-02-06T08:57:25.906Z,0.35
2023-02-06T09:00:28.561Z,0.63
2023-02-06T09:07:30.680Z,0.33
2023-02-06T09:11:02.445Z,0.48
2023-02-06T09:14:21.670Z,0.69
2023-02-06T09:17:30.766Z,0.84
2023-02-06T09:20:39.886Z,1.05
2023-02-06T09:23:59.665Z,1.13
2023-02-06T09:27:11.974Z,1.16
2023-02-06T09:30:23.169Z,1.05
2023-02-06T09:40:42.668Z,1.18
2023-02-06T09:43:59.662Z,1.05
2023-02-06T09:47:19.595Z,0.96
2023-02-06T10:05:43.852Z,1.47
2023-02-06T10:09:20.689Z,1.46
2023-02-06T10:12:42.940Z,1.77
2023-02-06T10:15:56.477Z,1.77
2023-02-06T10:19:31.150Z,1.77
2023-02-06T10:46:27.744Z,1.97
2023-02-06T10:49:48.809Z,1.91
2023-02-06T10:52:52.745Z,2.11
2023-02-06T10:56:19.832Z,2.29
2023-02-06T10:59:38.252Z,2.14
2023-02-06T11:06:38.660Z,1.99
2023-02-06T11:10:01.653Z,1.63
2023-02-06T11:13:19.677Z,1.83
2023-02-06T11:16:37.941Z,1.71
2023-02-06T11:19:55.637Z,1.61
2023-02-06T11:23:27.717Z,1.44
2023-02-06T11:26:43.718Z,1.61
2023-02-06T11:29:58.647Z,1.59
2023-02-06T11:33:47.383Z,1.65
2023-02-06T11:44:57.619Z,1.63
2023-02-06T11:48:44.671Z,1.63
2023-02-06T11:51:59.076Z,1.57
2023-02-06T11:55:09.187Z,1.63
2023-02-06T11:58:35.501Z,1.59
2023-02-06T12:21:56.687Z,1.39
2023-02-06T12:25:34.852Z,1.47
2023-02-06T12:28:54.253Z,1.50
2023-02-06T12:32:53.602Z,1.49
2023-02-06T12:36:12.574Z,1.36
2023-02-06T12:47:35.637Z,1.22
2023-02-06T12:54:47.849Z,1.35
2023-02-06T12:58:03.589Z,1.09
2023-02-06T13:01:27.979Z,1.08
2023-02-06T13:04:46.791Z,1.34
2023-02-06T13:08:09.647Z,1.40
2023-02-06T13:11:21.426Z,1.47
2023-02-06T13:14:39.850Z,1.51
2023-02-06T13:17:54.629Z,1.36
2023-02-06T13:21:25.271Z,1.26
2023-02-06T13:24:48.638Z,1.38
2023-02-06T13:27:51.004Z,1.38
2023-02-06T13:31:26.687Z,1.43
2023-02-06T13:34:35.339Z,1.25
2023-02-06T13:37:55.696Z,1.21
2023-02-06T13:41:19.621Z,1.25
2023-02-06T13:44:40.696Z,1.30
2023-02-06T13:48:15.929Z,1.30
2023-02-06T13:51:57.645Z,1.16
2023-02-06T13:55:57.630Z,1.15
2023-02-06T13:59:39.619Z,1.13
2023-02-06T14:02:58.662Z,1.05
2023-02-06T14:06:19.034Z,0.98
2023-02-06T14:09:45.648Z,1.00
2023-02-06T14:13:03.706Z,0.94
2023-02-06T14:16:40.612Z,0.98
2023-02-06T14:20:12.604Z,1.06
2023-02-06T14:23:35.614Z,1.02
2023-02-06T14:27:30.595Z,0.94
2023-02-06T14:31:02.757Z,0.84
2023-02-06T14:34:21.213Z,0.74
2023-02-06T14:37:52.632Z,0.80
2023-02-06T14:41:01.919Z,0.88
2023-02-06T14:44:22.322Z,0.94
2023-02-06T14:47:35.602Z,0.90
2023-02-06T14:50:50.780Z,0.86
2023-02-06T14:54:12.605Z,0.83
2023-02-06T14:57:33.675Z,0.71
2023-02-06T15:00:42.501Z,0.63
2023-02-06T15:03:58.661Z,0.58
2023-02-06T15:11:02.637Z,0.57
2023-02-06T15:14:22.402Z,0.54
2023-02-06T15:17:32.608Z,0.44
2023-02-06T15:20:52.186Z,0.41
2023-02-06T15:24:37.625Z,0.36
2023-02-06T15:27:46.647Z,0.30
2023-02-06T15:30:59.044Z,0.22
2023-02-06T15:34:08.579Z,0.17
2023-02-06T15:37:42.618Z,0.18
2023-02-06T15:41:09.620Z,0.13
2023-02-06T15:44:37.650Z,0.16
2023-02-06T15:47:46.847Z,0.13
2023-02-06T15:51:08.698Z,-0.01
2023-02-06T15:54:16.782Z,-0.01
2023-02-06T15:57:54.690Z,-0.05
2023-02-06T16:01:11.634Z,-0.16
2023-02-06T16:04:35.844Z,-0.17
2023-02-06T16:07:53.588Z,-0.16
2023-02-06T16:11:06.655Z,-0.19
2023-02-06T16:14:41.574Z,-0.17
2023-02-06T16:17:47.394Z,-0.27
2023-02-06T16:21:19.603Z,-0.20
2023-02-06T16:24:41.598Z,-0.25
2023-02-06T16:27:46.047Z,-0.28
2023-02-06T16:31:04.774Z,-0.36
2023-02-06T16:34:20.905Z,-0.31
2023-02-06T16:37:30.596Z,-0.51
2023-02-06T16:40:40.340Z,-0.42
2023-02-06T16:43:55.626Z,-0.45
2023-02-06T16:47:04.568Z,-0.43
2023-02-06T16:50:15.413Z,-0.44
2023-02-06T16:53:31.565Z,-0.41
2023-02-06T16:56:46.977Z,-0.43
2023-02-06T17:00:26.166Z,-0.53
2023-02-06T17:03:32.475Z,-0.54
2023-02-06T17:06:42.584Z,-0.53
2023-02-06T17:09:52.803Z,-0.60
2023-02-06T17:13:12.018Z,-0.55
2023-02-06T17:16:30.607Z,-0.64
2023-02-06T17:19:40.674Z,-0.70
2023-02-06T17:22:55.868Z,-0.57
2023-02-06T17:26:30.785Z,-0.57
2023-02-06T17:29:40.908Z,-0.59
2023-02-06T17:32:50.280Z,-0.63
2023-02-06T17:36:07.927Z,-0.63
2023-02-06T17:39:18.607Z,-0.65
2023-02-06T17:42:33.591Z,-0.80
2023-02-06T17:45:49.975Z,-0.71
2023-02-06T17:48:52.478Z,-0.80
2023-02-06T17:52:12.591Z,-0.78
2023-02-06T17:55:32.046Z,-0.83
2023-02-06T17:59:04.018Z,-0.85
2023-02-06T18:02:18.657Z,-0.88
2023-02-06T18:05:35.116Z,-0.88
2023-02-06T18:08:51.575Z,-0.92
2023-02-06T18:12:00.747Z,-0.90
2023-02-06T18:15:17.599Z,-0.92
2023-02-06T18:18:26.568Z,-0.90
2023-02-06T18:21:35.625Z,-0.97
2023-02-06T18:24:53.001Z,-0.97
2023-02-06T18:28:01.751Z,-1.10
2023-02-06T18:31:37.916Z,-1.09
2023-02-06T18:34:42.064Z,-1.07
2023-02-06T18:37:58.511Z,-1.12
2023-02-06T18:41:05.044Z,-1.12
2023-02-06T18:44:21.046Z,-1.11
2023-02-06T18:47:30.623Z,-1.17
2023-02-06T18:50:53.541Z,-1.23
2023-02-06T18:54:02.998Z,-1.27
2023-02-06T18:57:12.124Z,-1.23
2023-02-06T19:00:29.939Z,-1.21
2023-02-06T19:03:39.550Z,-1.26
2023-02-06T19:06:57.000Z,-1.29
2023-02-06T19:10:02.130Z,-1.29
2023-02-06T19:13:20.952Z,-1.32
2023-02-06T19:16:24.169Z,-1.46
2023-02-06T19:19:40.594Z,-1.39
2023-02-06T19:23:00.014Z,-1.38
2023-02-06T19:26:23.919Z,-1.44
2023-02-06T19:29:35.110Z,-1.45
2023-02-06T19:32:53.884Z,-1.58
2023-02-06T19:36:20.915Z,-1.49
2023-02-06T19:39:24.289Z,-1.51
2023-02-06T19:42:40.938Z,-1.61
2023-02-06T19:45:46.363Z,-1.60
2023-02-06T19:49:02.542Z,-1.67
2023-02-06T19:52:12.899Z,-1.68
2023-02-06T19:55:22.970Z,-1.78
2023-02-06T19:58:39.932Z,-1.80
2023-02-06T20:02:03.612Z,-1.81
2023-02-06T20:05:19.550Z,-1.95
2023-02-06T20:08:36.008Z,-1.90
2023-02-06T20:11:45.037Z,-2.03
2023-02-06T20:14:54.962Z,-2.08
2023-02-06T20:18:05.245Z,-2.00
2023-02-06T20:21:31.302Z,-2.00
2023-02-06T20:24:47.829Z,-2.06
2023-02-06T20:28:04.000Z,-2.09
2023-02-06T20:31:17.588Z,-2.11
2023-02-06T20:34:34.977Z,-2.11
2023-02-06T20:37:37.989Z,-2.17
2023-02-06T20:40:58.483Z,-2.41
2023-02-06T20:44:11.468Z,-2.27
2023-02-06T20:47:20.831Z,-2.22
2023-02-06T20:50:38.154Z,-2.22
2023-02-06T20:53:41.456Z,-2.23
2023-02-06T20:56:57.821Z,-2.34
2023-02-06T21:00:06.541Z,-2.29
2023-02-06T21:03:16.035Z,-2.25
2023-02-06T21:06:25.862Z,-2.21
2023-02-06T21:09:41.523Z,-2.25
2023-02-06T21:12:44.233Z,-2.28
2023-02-06T21:16:01.731Z,-2.29
2023-02-06T21:19:18.556Z,-2.24
2023-02-06T21:22:40.533Z,-2.25
2023-02-06T21:26:02.766Z,-2.24
2023-02-06T21:29:12.995Z,-2.24
2023-02-06T21:32:21.503Z,-2.26
2023-02-06T21:35:43.532Z,-2.27
2023-02-06T21:38:58.544Z,-2.36
2023-02-06T21:42:08.844Z,-2.49
2023-02-06T21:45:17.544Z,-2.55
2023-02-06T21:48:32.579Z,-2.60
2023-02-06T21:51:41.519Z,-2.67
2023-02-06T21:54:50.232Z,-2.72
2023-02-06T21:58:06.547Z,-2.78
2023-02-06T22:01:30.630Z,-2.94
2023-02-06T22:04:39.235Z,-2.84
2023-02-06T22:07:54.551Z,-2.83
2023-02-06T22:11:04.516Z,-2.85
2023-02-06T22:14:17.688Z,-2.85
2023-02-06T22:17:26.524Z,-2.93
2023-02-06T22:20:35.275Z,-2.95
2023-02-06T22:23:52.536Z,-3.03
2023-02-06T22:27:00.559Z,-3.02
2023-02-06T22:30:17.521Z,-2.99
2023-02-06T22:33:26.508Z,-2.99
2023-02-06T22:36:35.174Z,-3.02
2023-02-06T22:39:49.524Z,-3.04
2023-02-06T22:43:05.515Z,-3.09
2023-02-06T22:46:14.522Z,-3.13
2023-02-06T22:49:30.523Z,-3.14
2023-02-06T22:52:39.236Z,-3.18
2023-02-06T22:55:54.520Z,-3.24
2023-02-06T22:59:16.530Z,-3.40
2023-02-06T23:02:25.242Z,-3.47
2023-02-06T23:05:33.518Z,-3.36
2023-02-06T23:08:43.548Z,-3.39
2023-02-06T23:11:53.526Z,-3.44
2023-02-06T23:15:02.160Z,-3.46
2023-02-06T23:18:11.537Z,-3.51
2023-02-06T23:21:22.470Z,-3.54
2023-02-06T23:24:37.533Z,-3.58
2023-02-06T23:27:45.535Z,-3.58
2023-02-06T23:31:01.622Z,-3.58
2023-02-06T23:34:10.633Z,-3.50
2023-02-06T23:37:25.509Z,-3.53
2023-02-06T23:40:28.486Z,-3.37
2023-02-06T23:43:44.482Z,-3.38
2023-02-06T23:46:52.488Z,-3.30
2023-02-06T23:50:01.131Z,-3.31
2023-02-06T23:53:16.529Z,-3.44
2023-02-06T23:56:24.943Z,-3.43
2023-02-06T23:59:39.511Z,-3.52
